createdAt,value
2019-03-28T00:02:25.648Z,10.17
2019-03-28T00:04:53.153Z,10.46
2019-03-28T00:07:23.886Z,10.36
2019-03-28T00:09:48.182Z,10.03
2019-03-28T00:12:15.711Z,10.44
2019-03-28T00:14:43.389Z,10.58
2019-03-28T00:17:10.858Z,10.71
2019-03-28T00:19:38.989Z,10.79
2019-03-28T00:22:06.520Z,10.65
2019-03-28T00:24:34.034Z,10.59
2019-03-28T00:27:01.606Z,10.51
2019-03-28T00:29:29.075Z,10.57
2019-03-28T00:31:56.636Z,10.61
2019-03-28T00:34:24.119Z,10.17
2019-03-28T00:36:51.754Z,10.12
2019-03-28T00:39:19.243Z,10.55
2019-03-28T00:41:46.721Z,10.75
2019-03-28T00:44:16.871Z,10.56
2019-03-28T00:46:44.434Z,10.26
2019-03-28T00:49:11.943Z,10.11
2019-03-28T00:51:39.609Z,10.01
2019-03-28T00:54:07.142Z,10.05
2019-03-28T00:56:46.596Z,10.14
2019-03-28T00:59:02.172Z,9.92
2019-03-28T01:01:29.663Z,10.06
2019-03-28T01:03:57.134Z,9.94
2019-03-28T01:06:24.661Z,10.01
2019-03-28T01:08:52.155Z,10.15
2019-03-28T01:11:19.683Z,10.16
2019-03-28T01:13:47.150Z,10.39
2019-03-28T01:16:14.608Z,10.56
2019-03-28T01:18:44.003Z,10.69
2019-03-28T01:21:11.468Z,10.68
2019-03-28T01:23:38.955Z,10.88
2019-03-28T01:26:06.445Z,10.92
2019-03-28T01:28:33.955Z,10.74
2019-03-28T01:31:01.491Z,10.87
2019-03-28T01:33:28.965Z,10.67
2019-03-28T01:35:56.456Z,10.53
2019-03-28T01:38:23.950Z,10.67
2019-03-28T01:40:51.452Z,10.72
2019-03-28T01:43:19.022Z,10.53
2019-03-28T01:45:46.650Z,10.43
2019-03-28T01:48:14.170Z,10.29
2019-03-28T01:50:41.668Z,10.07
2019-03-28T01:53:09.160Z,10.14
2019-03-28T01:55:36.628Z,10.05
2019-03-28T01:58:05.220Z,9.92
2019-03-28T02:00:32.109Z,9.98
2019-03-28T02:02:59.642Z,9.81
2019-03-28T02:05:27.203Z,9.95
2019-03-28T02:07:54.708Z,10.12
2019-03-28T02:10:22.188Z,9.88
2019-03-28T02:12:49.706Z,9.75
2019-03-28T02:15:17.192Z,9.78
2019-03-28T02:17:44.683Z,9.84
2019-03-28T02:20:12.173Z,10.26
2019-03-28T02:22:39.674Z,10.27
2019-03-28T02:25:07.135Z,10.47
2019-03-28T02:27:34.628Z,10.60
2019-03-28T02:30:02.619Z,10.71
2019-03-28T02:32:30.128Z,10.67
2019-03-28T02:34:57.607Z,10.64
2019-03-28T02:37:25.070Z,10.30
2019-03-28T02:39:52.552Z,10.19
2019-03-28T02:42:20.040Z,9.98
2019-03-28T02:44:47.553Z,10.08
2019-03-28T02:47:15.038Z,10.15
2019-03-28T02:49:42.528Z,9.95
2019-03-28T02:52:10.001Z,9.86
2019-03-28T02:54:37.518Z,9.93
2019-03-28T02:57:04.998Z,9.86
2019-03-28T02:59:32.509Z,9.86
2019-03-28T03:02:00.001Z,9.85
2019-03-28T03:04:27.510Z,9.82
2019-03-28T03:06:54.986Z,10.05
2019-03-28T03:09:22.471Z,10.14
2019-03-28T03:11:49.970Z,10.11
2019-03-28T03:14:17.443Z,10.00
2019-03-28T03:16:44.927Z,10.07
2019-03-28T03:19:13.061Z,10.20
2019-03-28T03:21:40.601Z,10.15
2019-03-28T03:24:08.069Z,10.14
2019-03-28T03:26:35.567Z,10.49
2019-03-28T03:29:03.543Z,10.61
2019-03-28T03:31:30.967Z,10.55
2019-03-28T03:33:58.467Z,10.18
2019-03-28T03:36:25.995Z,10.25
2019-03-28T03:38:53.481Z,10.02
2019-03-28T03:41:20.948Z,10.10
2019-03-28T03:43:49.667Z,9.76
2019-03-28T03:46:16.680Z,9.64
2019-03-28T03:48:44.185Z,9.72
2019-03-28T03:51:12.220Z,9.48
2019-03-28T03:53:39.722Z,9.48
2019-03-28T03:56:07.190Z,9.52
2019-03-28T03:58:34.672Z,9.50
2019-03-28T04:01:02.166Z,9.42
2019-03-28T04:03:29.800Z,9.48
2019-03-28T04:05:57.171Z,9.40
2019-03-28T04:08:24.668Z,9.46
2019-03-28T04:10:52.125Z,9.38
2019-03-28T04:13:19.624Z,9.43
2019-03-28T04:15:47.138Z,9.51
2019-03-28T04:18:14.618Z,9.58
2019-03-28T04:20:42.124Z,9.88
2019-03-28T04:23:09.650Z,10.15
2019-03-28T04:25:39.766Z,10.09
2019-03-28T04:28:06.258Z,9.76
2019-03-28T04:30:33.753Z,9.98
2019-03-28T04:33:01.225Z,9.99
2019-03-28T04:35:28.732Z,10.18
2019-03-28T04:37:56.196Z,9.65
2019-03-28T04:40:23.704Z,9.65
2019-03-28T04:42:51.175Z,9.81
2019-03-28T04:45:18.707Z,9.83
2019-03-28T04:47:46.193Z,9.56
2019-03-28T04:50:15.536Z,9.77
2019-03-28T04:52:43.030Z,9.78
2019-03-28T04:55:10.497Z,9.81
2019-03-28T04:57:40.898Z,9.79
2019-03-28T05:00:05.532Z,9.63
2019-03-28T05:02:33.015Z,9.64
2019-03-28T05:05:00.472Z,9.77
2019-03-28T05:07:27.977Z,9.84
2019-03-28T05:09:55.472Z,9.68
2019-03-28T05:12:23.838Z,9.86
2019-03-28T05:14:51.406Z,9.78
2019-03-28T05:17:18.893Z,9.87
2019-03-28T05:19:46.350Z,9.66
2019-03-28T05:22:13.891Z,9.60
2019-03-28T05:24:41.481Z,9.64
2019-03-28T05:27:08.963Z,9.60
2019-03-28T05:29:36.461Z,9.54
2019-03-28T05:32:04.139Z,9.52
2019-03-28T05:34:31.619Z,9.41
2019-03-28T05:36:59.100Z,9.46
2019-03-28T05:39:26.586Z,9.49
2019-03-28T05:41:54.078Z,9.40
2019-03-28T05:44:21.586Z,9.47
2019-03-28T05:46:49.079Z,9.34
2019-03-28T05:49:16.568Z,9.35
2019-03-28T05:51:44.054Z,9.31
2019-03-28T05:54:11.591Z,9.47
2019-03-28T05:56:39.053Z,9.48
2019-03-28T05:59:11.003Z,9.45
2019-03-28T06:01:35.195Z,9.62
2019-03-28T06:04:02.689Z,9.80
2019-03-28T06:06:30.143Z,9.75
2019-03-28T06:08:57.627Z,9.98
2019-03-28T06:11:25.095Z,9.88
2019-03-28T06:13:52.614Z,9.88
2019-03-28T06:16:20.091Z,9.78
2019-03-28T06:18:47.609Z,9.96
2019-03-28T06:21:15.087Z,9.88
2019-03-28T06:23:42.564Z,9.87
2019-03-28T06:26:10.043Z,10.04
2019-03-28T06:28:37.530Z,10.26
2019-03-28T06:31:04.992Z,10.42
2019-03-28T06:33:32.462Z,10.52
2019-03-28T06:36:02.227Z,10.58
2019-03-28T06:38:27.486Z,10.43
2019-03-28T06:40:54.961Z,10.40
2019-03-28T06:43:22.474Z,10.35
2019-03-28T06:45:49.987Z,10.35
2019-03-28T06:48:17.456Z,10.58
2019-03-28T06:50:44.970Z,10.58
2019-03-28T06:53:12.634Z,10.57
2019-03-28T06:55:39.996Z,10.47
2019-03-28T06:58:07.514Z,10.63
2019-03-28T07:00:35.004Z,10.65
2019-03-28T07:03:02.488Z,10.83
2019-03-28T07:05:29.979Z,10.89
2019-03-28T07:07:58.317Z,10.95
2019-03-28T07:10:25.022Z,11.01
2019-03-28T07:12:52.507Z,11.06
2019-03-28T07:15:20.592Z,11.12
2019-03-28T07:17:47.606Z,11.00
2019-03-28T07:20:15.083Z,10.45
2019-03-28T07:22:45.831Z,10.22
2019-03-28T07:25:11.038Z,10.51
2019-03-28T07:27:38.555Z,10.20
2019-03-28T07:30:06.052Z,10.21
2019-03-28T07:32:33.512Z,10.43
2019-03-28T07:35:01.871Z,10.07
2019-03-28T07:37:29.449Z,10.23
2019-03-28T07:39:56.965Z,10.31
2019-03-28T07:42:24.479Z,10.33
2019-03-28T07:44:51.977Z,10.36
2019-03-28T07:47:19.461Z,10.63
2019-03-28T07:49:47.947Z,10.75
2019-03-28T07:52:15.412Z,10.93
2019-03-28T07:54:42.888Z,11.06
2019-03-28T07:57:10.388Z,11.16
2019-03-28T07:59:37.903Z,11.06
2019-03-28T08:02:05.386Z,10.69
2019-03-28T08:04:32.914Z,10.85
2019-03-28T08:07:00.397Z,10.40
2019-03-28T08:09:36.414Z,10.34
2019-03-28T08:11:56.525Z,10.70
2019-03-28T08:14:24.012Z,10.63
2019-03-28T08:16:51.515Z,10.76
2019-03-28T08:19:19.030Z,11.08
2019-03-28T08:21:46.520Z,11.20
2019-03-28T08:24:14.018Z,11.23
2019-03-28T08:26:41.500Z,10.78
2019-03-28T08:29:08.970Z,10.85
2019-03-28T08:31:36.463Z,11.07
2019-03-28T08:34:03.948Z,11.24
2019-03-28T08:36:31.422Z,10.94
2019-03-28T08:38:58.951Z,11.26
2019-03-28T08:41:26.446Z,11.05
2019-03-28T08:43:54.985Z,10.93
2019-03-28T08:46:22.472Z,11.10
2019-03-28T08:48:49.986Z,11.32
2019-03-28T08:51:17.469Z,11.34
2019-03-28T08:53:44.944Z,11.44
2019-03-28T08:56:12.441Z,10.98
2019-03-28T08:58:39.938Z,11.29
2019-03-28T09:01:07.433Z,11.50
2019-03-28T09:03:34.931Z,11.62
2019-03-28T09:06:02.407Z,11.69
2019-03-28T09:08:29.916Z,11.75
2019-03-28T09:10:57.438Z,11.74
2019-03-28T09:13:24.924Z,11.82
2019-03-28T09:15:52.399Z,11.88
2019-03-28T09:18:19.918Z,11.95
2019-03-28T09:20:48.346Z,11.99
2019-03-28T09:23:15.892Z,12.03
2019-03-28T09:25:43.448Z,11.51
2019-03-28T09:28:11.017Z,10.97
2019-03-28T09:30:47.897Z,11.33
2019-03-28T09:33:07.038Z,11.12
2019-03-28T09:35:34.549Z,10.92
2019-03-28T09:38:02.076Z,10.74
2019-03-28T09:40:29.553Z,10.73
2019-03-28T09:42:57.053Z,11.27
2019-03-28T09:45:24.578Z,11.58
2019-03-28T09:47:52.086Z,11.71
2019-03-28T09:50:20.539Z,11.92
2019-03-28T09:52:48.024Z,11.84
2019-03-28T09:55:18.665Z,11.14
2019-03-28T09:57:43.055Z,11.37
2019-03-28T10:00:10.562Z,11.59
2019-03-28T10:02:38.092Z,11.18
2019-03-28T10:05:06.535Z,11.18
2019-03-28T10:07:34.007Z,11.76
2019-03-28T10:10:01.937Z,11.74
2019-03-28T10:12:29.067Z,11.60
2019-03-28T10:14:56.578Z,11.92
2019-03-28T10:17:24.075Z,11.39
2019-03-28T10:19:51.581Z,11.70
2019-03-28T10:22:22.154Z,11.75
2019-03-28T10:24:46.597Z,11.78
2019-03-28T10:27:14.103Z,11.90
2019-03-28T10:29:41.594Z,11.54
2019-03-28T10:32:09.117Z,11.44
2019-03-28T10:34:36.598Z,11.86
2019-03-28T10:37:04.118Z,11.57
2019-03-28T10:39:31.611Z,11.59
2019-03-28T10:41:59.461Z,12.00
2019-03-28T10:44:27.000Z,12.29
2019-03-28T10:46:54.483Z,12.18
2019-03-28T10:49:22.002Z,12.26
2019-03-28T10:51:49.479Z,11.51
2019-03-28T10:54:20.508Z,11.66
2019-03-28T10:56:51.670Z,11.37
2019-03-28T10:59:22.759Z,11.73
2019-03-28T11:01:49.174Z,11.89
2019-03-28T11:04:07.167Z,12.09
2019-03-28T11:06:34.678Z,12.11
2019-03-28T11:09:02.245Z,12.09
2019-03-28T11:11:29.727Z,12.05
2019-03-28T11:13:57.224Z,11.97
2019-03-28T11:16:24.728Z,12.00
2019-03-28T11:18:53.353Z,11.91
2019-03-28T11:21:21.323Z,12.33
2019-03-28T11:23:48.815Z,12.41
2019-03-28T11:26:16.338Z,12.58
2019-03-28T11:28:43.799Z,12.78
2019-03-28T11:31:11.371Z,12.95
2019-03-28T11:33:38.869Z,12.45
2019-03-28T11:36:06.383Z,12.91
2019-03-28T11:38:33.858Z,12.79
2019-03-28T11:41:01.342Z,13.04
2019-03-28T11:43:28.863Z,13.14
2019-03-28T11:45:56.436Z,13.02
2019-03-28T11:48:23.925Z,13.06
2019-03-28T11:50:51.402Z,13.21
2019-03-28T11:53:18.875Z,12.93
2019-03-28T11:55:48.839Z,13.21
2019-03-28T11:58:15.851Z,12.64
2019-03-28T12:00:43.376Z,12.39
2019-03-28T12:03:10.871Z,12.91
2019-03-28T12:05:38.332Z,12.36
2019-03-28T12:08:05.799Z,12.36
2019-03-28T12:10:33.584Z,12.90
2019-03-28T12:13:01.098Z,13.09
2019-03-28T12:15:28.763Z,13.11
2019-03-28T12:20:32.369Z,12.28
2019-03-28T12:22:59.893Z,12.19
2019-03-28T12:25:27.375Z,12.63
2019-03-28T12:27:54.850Z,12.94
2019-03-28T12:30:23.338Z,12.72
2019-03-28T12:32:50.828Z,12.89
2019-03-28T12:35:18.302Z,13.19
2019-03-28T12:37:45.810Z,13.29
2019-03-28T12:40:13.339Z,13.39
2019-03-28T12:42:40.830Z,12.72
2019-03-28T12:45:08.323Z,12.50
2019-03-28T12:47:42.420Z,13.06
2019-03-28T12:50:03.447Z,13.25
2019-03-28T12:52:30.967Z,13.24
2019-03-28T12:54:58.447Z,12.91
2019-03-28T12:57:25.960Z,12.73
2019-03-28T12:59:54.263Z,12.87
2019-03-28T13:02:28.605Z,12.82
2019-03-28T13:04:50.583Z,12.54
2019-03-28T13:07:18.162Z,12.78
2019-03-28T13:09:45.708Z,12.74
2019-03-28T13:12:13.211Z,12.73
2019-03-28T13:14:40.703Z,12.58
2019-03-28T13:17:10.134Z,12.66
2019-03-28T13:19:37.641Z,12.93
2019-03-28T13:22:05.100Z,12.43
2019-03-28T13:24:32.604Z,12.78
2019-03-28T13:27:00.702Z,13.08
2019-03-28T13:29:28.272Z,13.25
2019-03-28T13:31:55.809Z,13.35
2019-03-28T13:34:23.250Z,13.43
2019-03-28T13:36:50.708Z,13.51
2019-03-28T13:39:18.154Z,13.53
2019-03-28T13:41:46.209Z,13.58
2019-03-28T13:44:13.093Z,13.61
2019-03-28T13:46:40.564Z,13.18
2019-03-28T13:49:08.037Z,13.46
2019-03-28T13:51:35.488Z,13.26
2019-03-28T13:54:02.961Z,12.54
2019-03-28T13:56:30.455Z,12.47
2019-03-28T13:58:57.901Z,12.70
2019-03-28T14:01:26.333Z,13.07
2019-03-28T14:03:54.989Z,13.02
2019-03-28T14:06:22.447Z,13.34
2019-03-28T14:08:49.901Z,13.34
2019-03-28T14:11:17.494Z,13.51
2019-03-28T14:13:44.960Z,13.53
2019-03-28T14:16:12.392Z,13.54
2019-03-28T14:18:39.864Z,13.60
2019-03-28T14:21:07.306Z,13.66
2019-03-28T14:23:34.794Z,13.66
2019-03-28T14:26:02.299Z,13.68
2019-03-28T14:28:29.774Z,13.73
2019-03-28T14:30:57.227Z,13.69
2019-03-28T14:33:27.223Z,13.67
2019-03-28T14:35:52.188Z,13.70
2019-03-28T14:38:20.208Z,13.72
2019-03-28T14:40:47.670Z,13.72
2019-03-28T14:43:15.183Z,13.71
2019-03-28T14:45:42.653Z,13.75
2019-03-28T14:48:10.111Z,13.80
2019-03-28T14:50:37.587Z,13.78
2019-03-28T14:53:05.016Z,13.80
2019-03-28T14:55:32.481Z,13.79
2019-03-28T14:57:59.942Z,13.40
2019-03-28T15:00:42.427Z,13.66
2019-03-28T15:03:09.915Z,13.71
2019-03-28T15:05:37.362Z,13.76
2019-03-28T15:08:04.828Z,13.75
2019-03-28T15:10:32.293Z,13.75
2019-03-28T15:12:59.798Z,13.82
2019-03-28T15:15:27.281Z,13.82
2019-03-28T15:17:54.705Z,13.55
2019-03-28T15:20:22.212Z,13.68
2019-03-28T15:22:49.644Z,13.74
2019-03-28T15:25:17.097Z,13.79
2019-03-28T15:27:44.599Z,13.81
2019-03-28T15:30:12.047Z,13.82
2019-03-28T15:32:39.535Z,13.84
2019-03-28T15:35:06.960Z,13.85
2019-03-28T15:37:34.472Z,13.84
2019-03-28T15:40:01.924Z,13.84
2019-03-28T15:42:29.404Z,13.81
2019-03-28T15:44:57.189Z,13.21
2019-03-28T15:47:24.650Z,13.18
2019-03-28T15:49:52.130Z,12.99
2019-03-28T15:52:19.608Z,13.31
2019-03-28T15:54:47.101Z,13.41
2019-03-28T15:57:14.563Z,13.31
2019-03-28T15:59:42.023Z,13.48
2019-03-28T16:02:09.567Z,13.64
2019-03-28T16:04:37.059Z,13.68
2019-03-28T16:07:04.534Z,13.55
2019-03-28T16:09:32.038Z,13.63
2019-03-28T16:12:02.842Z,13.62
2019-03-28T16:14:27.777Z,13.64
2019-03-28T16:16:55.413Z,13.71
2019-03-28T16:19:22.750Z,13.72
2019-03-28T16:21:50.206Z,13.71
2019-03-28T16:24:17.707Z,13.74
2019-03-28T16:26:45.154Z,13.78
2019-03-28T16:29:12.615Z,13.78
2019-03-28T16:31:40.051Z,13.79
2019-03-28T16:34:07.702Z,13.78
2019-03-28T16:36:35.019Z,13.80
2019-03-28T16:39:02.459Z,13.82
2019-03-28T16:41:29.936Z,13.84
2019-03-28T16:43:59.157Z,13.78
2019-03-28T16:46:25.928Z,13.76
2019-03-28T16:48:53.537Z,13.78
2019-03-28T16:51:20.977Z,13.76
2019-03-28T16:53:48.538Z,13.75
2019-03-28T16:56:15.993Z,13.74
2019-03-28T16:58:43.539Z,13.73
2019-03-28T17:01:10.954Z,13.74
2019-03-28T17:03:38.410Z,13.75
2019-03-28T17:06:05.897Z,13.75
2019-03-28T17:08:33.562Z,13.73
2019-03-28T17:11:01.111Z,13.73
2019-03-28T17:13:28.975Z,13.74
2019-03-28T17:15:56.453Z,13.63
2019-03-28T17:18:24.264Z,13.61
2019-03-28T17:20:51.755Z,13.60
2019-03-28T17:23:19.185Z,13.60
2019-03-28T17:25:46.648Z,13.61
2019-03-28T17:28:14.107Z,13.62
2019-03-28T17:30:41.553Z,13.58
2019-03-28T17:33:09.026Z,13.61
2019-03-28T17:35:36.501Z,13.60
2019-03-28T17:38:03.922Z,13.60
2019-03-28T17:40:31.395Z,13.36
2019-03-28T17:42:59.500Z,13.43
2019-03-28T17:45:27.605Z,13.48
2019-03-28T17:47:55.069Z,13.57
2019-03-28T17:50:22.513Z,13.58
2019-03-28T17:52:49.991Z,13.56
2019-03-28T17:55:19.730Z,13.56
2019-03-28T17:57:45.186Z,13.57
2019-03-28T18:00:12.674Z,13.52
2019-03-28T18:02:40.565Z,13.51
2019-03-28T18:05:09.666Z,13.44
2019-03-28T18:07:36.699Z,13.44
2019-03-28T18:10:04.996Z,13.45
2019-03-28T18:12:32.461Z,13.38
2019-03-28T18:15:00.293Z,13.38
2019-03-28T18:17:27.717Z,13.40
2019-03-28T18:19:55.209Z,13.39
2019-03-28T18:22:22.663Z,13.39
2019-03-28T18:24:50.266Z,13.40
2019-03-28T18:27:17.832Z,13.38
2019-03-28T18:29:45.338Z,13.15
2019-03-28T18:32:13.169Z,13.30
2019-03-28T18:34:40.657Z,13.34
2019-03-28T18:37:08.099Z,13.33
2019-03-28T18:39:35.585Z,13.34
2019-03-28T18:42:03.056Z,13.34
2019-03-28T18:44:30.833Z,13.31
2019-03-28T18:46:58.302Z,13.34
2019-03-28T18:49:25.884Z,13.27
2019-03-28T18:51:53.365Z,13.34
2019-03-28T18:54:20.942Z,13.33
2019-03-28T18:56:48.366Z,13.30
2019-03-28T18:59:15.793Z,13.29
2019-03-28T19:01:43.253Z,13.12
2019-03-28T19:04:10.691Z,13.23
2019-03-28T19:06:38.153Z,13.19
2019-03-28T19:09:05.750Z,13.24
2019-03-28T19:11:33.298Z,13.30
2019-03-28T19:14:01.298Z,13.28
2019-03-28T19:16:28.752Z,13.09
2019-03-28T19:18:56.351Z,13.25
2019-03-28T19:21:23.867Z,13.20
2019-03-28T19:23:51.337Z,13.23
2019-03-28T19:26:18.786Z,13.20
2019-03-28T19:28:46.259Z,13.15
2019-03-28T19:31:13.774Z,13.11
2019-03-28T19:33:41.317Z,13.10
2019-03-28T19:36:08.751Z,13.08
2019-03-28T19:38:36.311Z,13.07
2019-03-28T19:41:03.819Z,13.02
2019-03-28T19:43:31.776Z,13.02
2019-03-28T19:45:59.231Z,12.99
2019-03-28T19:48:26.653Z,12.96
2019-03-28T19:50:54.201Z,12.93
2019-03-28T19:53:21.643Z,12.91
2019-03-28T19:55:49.111Z,12.90
2019-03-28T19:58:16.606Z,12.67
2019-03-28T20:00:44.255Z,12.79
2019-03-28T20:03:11.615Z,12.87
2019-03-28T20:05:47.639Z,12.56
2019-03-28T20:08:15.637Z,12.65
2019-03-28T20:10:34.123Z,12.48
2019-03-28T20:13:05.272Z,12.65
2019-03-28T20:15:29.958Z,12.63
2019-03-28T20:17:57.488Z,12.12
2019-03-28T20:20:24.933Z,12.20
2019-03-28T20:22:52.436Z,12.40
2019-03-28T20:25:19.903Z,12.52
2019-03-28T20:27:47.339Z,12.58
2019-03-28T20:30:14.826Z,12.64
2019-03-28T20:32:42.291Z,12.25
2019-03-28T20:35:10.694Z,12.45
2019-03-28T20:37:37.922Z,12.59
2019-03-28T20:40:04.798Z,12.55
2019-03-28T20:42:32.883Z,12.20
2019-03-28T20:45:00.373Z,12.32
2019-03-28T20:47:27.895Z,12.51
2019-03-28T20:49:55.366Z,12.09
2019-03-28T20:52:22.875Z,11.93
2019-03-28T20:54:50.342Z,11.86
2019-03-28T20:57:18.532Z,11.79
2019-03-28T20:59:46.888Z,12.04
2019-03-28T21:02:13.565Z,12.00
2019-03-28T21:04:41.160Z,11.98
2019-03-28T21:07:08.677Z,11.88
2019-03-28T21:09:36.355Z,11.56
2019-03-28T21:12:03.977Z,11.60
2019-03-28T21:14:31.407Z,11.52
2019-03-28T21:16:58.906Z,11.24
2019-03-28T21:19:26.438Z,11.50
2019-03-28T21:21:55.273Z,11.40
2019-03-28T21:24:23.675Z,11.49
2019-03-28T21:26:51.616Z,11.46
2019-03-28T21:29:19.104Z,11.64
2019-03-28T21:31:50.195Z,11.67
2019-03-28T21:34:16.343Z,11.44
2019-03-28T21:36:44.107Z,11.35
2019-03-28T21:39:11.799Z,11.23
2019-03-28T21:41:39.334Z,11.35
2019-03-28T21:44:07.093Z,11.61
2019-03-28T21:46:34.733Z,11.57
2019-03-28T21:49:02.427Z,11.49
2019-03-28T21:51:30.213Z,11.22
2019-03-28T21:53:58.288Z,11.40
2019-03-28T21:56:25.322Z,11.49
2019-03-28T21:58:52.767Z,11.49
2019-03-28T22:01:20.201Z,11.43
2019-03-28T22:03:47.639Z,11.30
2019-03-28T22:06:15.343Z,11.61
2019-03-28T22:08:42.809Z,11.75
2019-03-28T22:11:10.322Z,11.79
2019-03-28T22:13:37.777Z,11.75
2019-03-28T22:16:07.637Z,11.78
2019-03-28T22:18:33.812Z,11.84
2019-03-28T22:21:00.282Z,11.85
2019-03-28T22:23:27.786Z,11.81
2019-03-28T22:25:55.259Z,11.71
2019-03-28T22:28:22.700Z,11.55
2019-03-28T22:30:50.202Z,11.45
2019-03-28T22:33:17.679Z,11.55
2019-03-28T22:35:45.153Z,11.51
2019-03-28T22:38:12.591Z,11.57
2019-03-28T22:40:40.058Z,11.53
2019-03-28T22:43:07.517Z,11.52
2019-03-28T22:45:35.541Z,11.60
2019-03-28T22:48:10.779Z,11.62
2019-03-28T22:50:30.434Z,11.54
2019-03-28T22:52:57.921Z,11.54
2019-03-28T22:55:25.793Z,11.36
2019-03-28T22:57:54.156Z,11.25
2019-03-28T23:00:20.738Z,11.32
2019-03-28T23:02:49.022Z,11.31
2019-03-28T23:05:16.580Z,11.36
2019-03-28T23:07:44.060Z,11.12
2019-03-28T23:10:11.565Z,11.28
2019-03-28T23:12:39.010Z,11.46
2019-03-28T23:15:06.875Z,11.48
2019-03-28T23:17:34.414Z,11.31
2019-03-28T23:20:01.850Z,11.22
2019-03-28T23:22:29.311Z,11.08
2019-03-28T23:24:56.794Z,11.19
2019-03-28T23:27:24.292Z,11.30
2019-03-28T23:29:51.715Z,11.35
2019-03-28T23:32:19.151Z,11.29
2019-03-28T23:34:46.622Z,11.22
2019-03-28T23:37:24.222Z,11.32
2019-03-28T23:39:41.633Z,11.35
2019-03-28T23:42:09.078Z,11.38
2019-03-28T23:44:36.697Z,11.35
2019-03-28T23:47:04.153Z,11.38
2019-03-28T23:49:32.551Z,11.38
2019-03-28T23:52:00.066Z,11.38
2019-03-28T23:54:27.534Z,11.37
2019-03-28T23:56:54.962Z,11.39
2019-03-28T23:59:22.392Z,11.35
